Time;durP1;ratioP1;P1;durP2;ratioP2;P2;SDS_P1;SDS_P2;PMS_P1;PMS_P2;Temp;Humidity;BMP_temperature;BMP_pressure;BME280_temperature;BME280_humidity;BME280_pressure;Samples;Min_cycle;Max_cycle;Signal;HPM_P1;HPM_P2
2021/08/20 00:01:28;;;;;;;;;51.75;44.50;;;;;22.13;92.23;100330.59;4957479;28;8874;-84
2021/08/20 00:04:24;;;;;;;;;46.50;40.50;;;;;22.02;92.53;100329.88;4957466;28;8851;-83
2021/08/20 00:07:20;;;;;;;;;40.50;34.75;;;;;22.34;92.11;100335.19;4955862;28;8880;-84
2021/08/20 00:10:16;;;;;;;;;44.00;37.75;;;;;22.47;91.55;100322.16;4957331;28;8872;-84
2021/08/20 00:13:11;;;;;;;;;40.00;35.50;;;;;22.33;91.83;100325.16;4955509;28;8871;-83
2021/08/20 00:15:54;;;;;;;;;38.00;33.50;;;;;22.31;91.98;100335.22;4957648;28;8907;-83
2021/08/20 00:18:50;;;;;;;;;37.25;33.75;;;;;22.44;91.04;100337.09;4957153;28;8855;-82
2021/08/20 00:21:37;;;;;;;;;40.75;35.50;;;;;22.93;89.24;100345.38;4956317;28;8864;-82
2021/08/20 00:24:21;;;;;;;;;33.00;31.50;;;;;23.19;86.78;100355.88;4957414;28;8950;-81
2021/08/20 00:26:55;;;;;;;;;30.75;30.00;;;;;23.20;86.36;100359.47;4956021;28;9610;-81
2021/08/20 00:29:50;;;;;;;;;21.25;21.25;;;;;23.34;84.63;100370.56;4957223;28;8864;-82
2021/08/20 00:32:46;;;;;;;;;26.75;26.75;;;;;23.28;85.34;100372.25;4956425;28;8852;-81
2021/08/20 00:35:14;;;;;;;;;25.00;25.00;;;;;23.16;85.67;100372.84;4957397;28;8974;-82
2021/08/20 00:37:42;;;;;;;;;20.75;20.50;;;;;23.33;85.03;100380.25;4957396;28;8947;-81
2021/08/20 00:40:42;;;;;;;;;22.50;22.50;;;;;23.05;85.89;100384.25;4955357;28;9756;-81
2021/08/20 00:43:26;;;;;;;;;23.75;23.75;;;;;23.14;86.21;100384.53;4957061;28;8856;-82
2021/08/20 00:46:21;;;;;;;;;20.60;20.60;;;;;22.92;86.57;100395.31;4956867;28;8867;-82
2021/08/20 00:49:17;;;;;;;;;21.50;21.50;;;;;22.63;86.62;100403.31;4955209;28;8855;-82
2021/08/20 00:52:01;;;;;;;;;24.50;24.50;;;;;22.64;88.36;100401.28;4937463;29;8906;-81
2021/08/20 00:54:29;;;;;;;;;24.25;24.25;;;;;22.46;87.18;100402.25;4937733;29;8909;-82
2021/08/20 00:57:18;;;;;;;;;2.50;2.25;;;;;22.62;88.67;100407.34;4941043;28;8849;-81
2021/08/20 01:00:17;;;;;;;;;22.50;22.50;;;;;22.83;87.05;100408.28;4942660;28;8879;-80
2021/08/20 01:03:13;;;;;;;;;23.50;23.50;;;;;23.02;85.88;100427.44;4955686;28;8845;-80
2021/08/20 01:06:04;;;;;;;;;22.00;21.50;;;;;23.09;85.96;100432.97;4957284;28;8881;-79
2021/08/20 01:09:00;;;;;;;;;22.75;22.75;;;;;23.21;85.32;100437.25;4960976;28;8859;-80
2021/08/20 01:11:29;;;;;;;;;22.50;22.50;;;;;23.15;85.18;100434.09;4975929;28;8972;-79
2021/08/20 01:14:29;;;;;;;;;24.00;24.00;;;;;23.33;84.34;100438.72;4975355;28;8950;-81
2021/08/20 01:17:24;;;;;;;;;18.00;16.50;;;;;22.96;84.65;100440.38;4974868;28;9036;-80
2021/08/20 01:20:20;;;;;;;;;22.50;22.50;;;;;22.82;85.12;100429.25;4974633;28;8899;-81
2021/08/20 01:23:08;;;;;;;;;24.75;24.75;;;;;22.90;85.06;100428.78;4974774;28;8865;-81
2021/08/20 01:25:47;;;;;;;;;25.25;25.25;;;;;22.39;87.27;100422.09;4960048;28;8835;-84
2021/08/20 01:28:42;;;;;;;;;25.00;25.00;;;;;22.31;88.52;100428.97;4961497;28;8878;-79
2021/08/20 01:31:30;;;;;;;;;22.00;22.00;;;;;22.44;87.84;100413.16;4975402;28;8863;-80
2021/08/20 01:34:14;;;;;;;;;23.25;23.25;;;;;22.80;86.53;100415.56;4960714;28;8871;-79
2021/08/20 01:37:02;;;;;;;;;19.00;19.00;;;;;23.08;85.10;100411.66;4961121;28;8863;-79
2021/08/20 01:39:57;;;;;;;;;23.00;22.25;;;;;23.18;84.49;100415.53;4961348;28;8960;-80
2021/08/20 01:42:53;;;;;;;;;24.75;23.25;;;;;23.05;85.19;100418.09;4973869;28;8925;-80
2021/08/20 01:45:50;;;;;;;;;21.25;21.25;;;;;22.93;86.45;100413.84;4974089;28;8919;-81
2021/08/20 01:48:50;;;;;;;;;19.25;19.25;;;;;23.00;85.43;100416.56;4961550;28;8850;-80
2021/08/20 01:51:20;;;;;;;;;16.75;16.75;;;;;23.02;85.46;100408.47;4975515;28;8859;-82
2021/08/20 01:53:50;;;;;;;;;17.00;17.00;;;;;23.08;84.83;100408.81;4958547;28;8866;-81
2021/08/20 01:56:47;;;;;;;;;21.50;21.50;;;;;23.15;84.47;100419.19;4961538;28;8869;-81
2021/08/20 01:59:43;;;;;;;;;19.50;19.50;;;;;23.38;82.92;100416.44;4965757;28;8848;-80
2021/08/20 02:02:39;;;;;;;;;22.00;22.00;;;;;22.99;83.82;100412.13;4953942;28;8888;-81
2021/08/20 02:05:34;;;;;;;;;20.75;20.75;;;;;23.01;83.55;100409.72;4947844;28;8843;-81
2021/08/20 02:08:30;;;;;;;;;17.60;17.60;;;;;23.27;83.30;100413.78;4936140;29;8879;-81
2021/08/20 02:11:26;;;;;;;;;21.00;21.00;;;;;23.07;83.81;100417.69;4936022;29;8931;-81
2021/08/20 02:14:08;;;;;;;;;19.80;18.00;;;;;22.95;84.16;100419.06;4936218;29;8867;-81
2021/08/20 02:17:04;;;;;;;;;22.00;22.00;;;;;22.69;85.61;100418.50;4934346;29;8850;-80
2021/08/20 02:19:33;;;;;;;;;22.00;21.75;;;;;22.74;85.12;100420.88;4936075;29;8882;-81
2021/08/20 02:22:14;;;;;;;;;23.00;23.00;;;;;22.68;85.91;100419.72;4952807;28;8890;-81
2021/08/20 02:24:41;;;;;;;;;20.00;20.00;;;;;22.69;86.05;100423.34;4955524;28;8883;-82
2021/08/20 02:27:37;;;;;;;;;16.75;16.75;;;;;22.45;86.63;100426.03;4953314;28;9002;-81
2021/08/20 02:30:33;;;;;;;;;20.75;20.75;;;;;22.64;86.67;100426.66;4954022;28;8852;-81
2021/08/20 02:33:29;;;;;;;;;16.60;16.60;;;;;22.74;84.97;100434.97;4954871;28;8872;-80
2021/08/20 02:36:11;;;;;;;;;14.40;14.40;;;;;22.65;84.96;100434.69;4954305;28;8891;-81
2021/08/20 02:39:07;;;;;;;;;14.00;14.00;;;;;22.70;84.01;100431.41;4965792;28;8844;-83
2021/08/20 02:42:02;;;;;;;;;13.80;13.80;;;;;22.83;83.50;100430.84;4953365;28;8875;-81
2021/08/20 02:44:44;;;;;;;;;14.80;14.80;;;;;22.66;84.29;100439.09;4954934;28;8856;-81
2021/08/20 02:47:40;;;;;;;;;12.40;12.40;;;;;22.59;84.55;100435.56;4954667;28;8891;-82
2021/08/20 02:50:35;;;;;;;;;14.00;14.00;;;;;22.37;85.13;100444.22;4965245;28;8863;-82
2021/08/20 02:53:17;;;;;;;;;13.20;13.20;;;;;22.21;85.70;100455.25;4954536;28;8876;-82
2021/08/20 02:55:45;;;;;;;;;12.40;12.40;;;;;22.16;85.74;100447.25;4954727;28;8859;-81
2021/08/20 02:58:17;;;;;;;;;13.60;13.60;;;;;22.12;87.01;100441.63;4953815;28;8848;-81
2021/08/20 03:00:45;;;;;;;;;15.50;14.75;;;;;22.20;87.39;100448.81;4954814;28;8852;-81
2021/08/20 03:03:41;;;;;;;;;11.00;11.00;;;;;22.04;87.19;100454.16;4953763;29;8860;-80
2021/08/20 03:06:17;;;;;;;;;11.50;11.50;;;;;22.46;86.69;100446.53;4954851;28;8872;-81
2021/08/20 03:09:20;;;;;;;;;13.00;13.00;;;;;22.29;85.59;100442.69;4954706;29;8864;-81
2021/08/20 03:12:16;;;;;;;;;10.40;10.40;;;;;22.15;86.76;100445.63;4954840;29;8856;-82
2021/08/20 03:14:52;;;;;;;;;11.60;11.60;;;;;22.14;86.45;100446.84;4954931;29;8851;-82
2021/08/20 03:17:48;;;;;;;;;12.00;12.00;;;;;22.15;86.10;100440.00;4954230;28;8852;-80
2021/08/20 03:20:43;;;;;;;;;10.60;10.60;;;;;22.13;86.64;100439.63;4954131;29;8868;-81
2021/08/20 03:23:12;;;;;;;;;11.80;11.80;;;;;22.17;86.93;100438.38;4954973;28;8860;-81
2021/08/20 03:26:06;;;;;;;;;11.50;10.50;;;;;22.18;86.76;100448.44;4955417;29;8872;-81
2021/08/20 03:29:02;;;;;;;;;8.60;8.60;;;;;22.07;86.08;100438.44;4947385;29;8877;-83
2021/08/20 03:31:30;;;;;;;;;11.00;10.75;;;;;22.18;86.33;100451.25;4951907;29;8910;-80
2021/08/20 03:34:34;;;;;;;;;7.80;7.80;;;;;21.99;86.66;100445.34;4954189;29;8872;-83
2021/08/20 03:37:22;;;;;;;;;10.80;10.80;;;;;21.85;87.69;100451.88;4936088;29;8882;-81
2021/08/20 03:40:18;;;;;;;;;11.00;11.00;;;;;21.96;87.74;100449.78;4935117;29;8835;-81
2021/08/20 03:43:14;;;;;;;;;10.00;10.00;;;;;22.09;87.33;100458.56;4935254;29;8921;-81
2021/08/20 03:46:10;;;;;;;;;9.20;9.20;;;;;22.22;86.72;100456.03;4945465;28;8951;-85
2021/08/20 03:49:06;;;;;;;;;8.40;8.40;;;;;22.01;86.21;100455.00;4954728;29;8917;-86
2021/08/20 03:52:02;;;;;;;;;11.60;10.20;;;;;21.84;87.17;100456.72;4965037;28;8864;-87
2021/08/20 03:54:30;;;;;;;;;8.00;8.00;;;;;21.97;86.95;100459.03;4953736;29;8874;-86
2021/08/20 03:56:58;;;;;;;;;10.20;10.20;;;;;22.16;87.18;100467.78;4943539;28;8888;-82
2021/08/20 03:59:54;;;;;;;;;9.80;9.80;;;;;22.37;86.34;100469.56;4978847;28;8850;-83
2021/08/20 04:02:49;;;;;;;;;9.60;9.40;;;;;22.25;86.20;100467.28;4963506;28;8890;-84
2021/08/20 04:05:45;;;;;;;;;8.00;8.00;;;;;22.32;85.98;100464.41;4974437;28;8862;-84
2021/08/20 04:08:41;;;;;;;;;7.20;7.20;;;;;22.16;85.69;100479.03;4963877;28;8918;-82
2021/08/20 04:11:11;;;;;;;;;6.00;6.00;;;;;22.20;86.60;100471.34;4977787;28;8889;-83
2021/08/20 04:13:44;;;;;;;;;6.40;6.40;;;;;22.15;85.74;100465.34;4977853;28;8854;-83
2021/08/20 04:16:42;;;;;;;;;8.80;8.80;;;;;22.17;85.98;100466.53;4976009;28;8890;-83
2021/08/20 04:19:39;;;;;;;;;8.20;8.20;;;;;22.22;85.44;100456.84;4975614;28;8854;-82
2021/08/20 04:22:36;;;;;;;;;8.60;8.60;;;;;22.24;85.82;100464.88;4974908;28;8870;-82
2021/08/20 04:25:12;;;;;;;;;9.20;9.20;;;;;22.13;85.42;100460.13;4976713;28;9000;-83
2021/08/20 04:28:08;;;;;;;;;10.40;10.40;;;;;22.24;86.72;100456.41;4975534;28;8858;-80
2021/08/20 04:30:43;;;;;;;;;10.80;10.80;;;;;22.51;85.69;100463.00;4973044;28;8993;-79
2021/08/20 04:33:38;;;;;;;;;9.00;9.00;;;;;22.54;85.64;100447.25;4958863;28;8876;-79
2021/08/20 04:36:34;;;;;;;;;11.40;11.40;;;;;22.42;85.26;100460.69;4981202;28;8856;-80
2021/08/20 04:39:03;;;;;;;;;11.80;11.80;;;;;22.49;85.66;100448.53;4961680;28;8893;-79
2021/08/20 04:41:59;;;;;;;;;11.20;11.20;;;;;22.61;84.96;100438.75;4994620;28;8892;-80
2021/08/20 04:44:55;;;;;;;;;11.00;11.00;;;;;22.63;85.40;100444.78;4985329;28;8862;-81
2021/08/20 04:47:51;;;;;;;;;11.40;11.40;;;;;22.71;84.86;100437.84;4975518;28;8854;-80
2021/08/20 04:50:19;;;;;;;;;11.80;10.80;;;;;22.79;84.50;100439.34;4975993;28;8941;-79
2021/08/20 04:53:14;;;;;;;;;14.20;13.00;;;;;22.68;85.96;100439.47;4994692;28;8860;-79
2021/08/20 04:55:44;;;;;;;;;12.80;12.80;;;;;22.44;85.48;100452.59;4988421;28;8861;-79
2021/08/20 04:58:31;;;;;;;;;11.60;11.60;;;;;22.80;86.24;100440.94;4970868;28;8883;-79
2021/08/20 05:00:59;;;;;;;;;11.80;11.80;;;;;23.00;84.41;100450.41;4976084;28;8882;-79
2021/08/20 05:03:56;;;;;;;;;12.20;12.20;;;;;23.20;83.09;100458.22;4975651;28;8868;-81
2021/08/20 05:06:24;;;;;;;;;11.60;11.60;;;;;23.25;82.48;100452.91;4976145;28;8925;-80
2021/08/20 05:09:12;;;;;;;;;15.00;15.00;;;;;23.29;83.11;100455.66;4993086;28;8863;-79
2021/08/20 05:12:09;;;;;;;;;13.20;13.20;;;;;23.00;82.76;100450.41;4994495;28;9582;-79
2021/08/20 05:14:51;;;;;;;;;18.40;18.00;;;;;23.12;83.64;100446.22;4995280;28;8963;-80
2021/08/20 05:17:46;;;;;;;;;21.75;21.75;;;;;23.24;82.69;100456.16;4994160;28;8851;-79
2021/08/20 05:20:15;;;;;;;;;33.25;32.00;;;;;23.36;83.66;100449.94;4994888;28;8852;-79
2021/08/20 05:23:10;;;;;;;;;53.50;44.25;;;;;23.51;82.98;100450.53;4981443;28;8883;-80
2021/08/20 05:25:38;;;;;;;;;107.50;106.25;;;;;23.84;81.70;100457.31;4995041;28;8946;-81
2021/08/20 05:28:09;;;;;;;;;49.25;42.00;;;;;23.92;80.16;100455.19;4995110;28;11725;-83
2021/08/20 05:30:46;;;;;;;;;75.25;70.25;;;;;24.02;80.42;100451.41;4994886;28;8859;-81
2021/08/20 05:33:43;;;;;;;;;53.75;45.50;;;;;24.19;79.67;100461.59;4980825;28;10640;-82
2021/08/20 05:36:39;;;;;;;;;43.25;37.75;;;;;24.16;79.13;100461.66;4993042;28;8866;-82
2021/08/20 05:39:26;;;;;;;;;18.80;18.80;;;;;23.91;79.34;100457.19;4959307;28;8875;-82
2021/08/20 05:42:22;;;;;;;;;19.00;18.00;;;;;23.80;80.04;100465.06;4959342;28;8888;-82
2021/08/20 05:44:50;;;;;;;;;60.00;49.25;;;;;23.80;80.79;100463.03;4955103;28;8878;-82
2021/08/20 05:47:46;;;;;;;;;29.50;29.25;;;;;23.78;80.65;100461.88;4979319;28;8843;-79
2021/08/20 05:50:42;;;;;;;;;25.00;25.00;;;;;23.87;79.77;100459.31;4993456;28;8848;-84
2021/08/20 05:53:38;;;;;;;;;19.75;19.75;;;;;23.96;79.85;100464.41;4985834;28;8863;-80
2021/08/20 05:56:09;;;;;;;;;14.60;14.60;;;;;23.54;79.57;100461.78;4973469;28;8930;-80
2021/08/20 05:59:05;;;;;;;;;36.75;33.25;;;;;23.96;79.76;100451.06;4960922;28;8856;-83
2021/08/20 06:01:55;;;;;;;;;20.80;20.80;;;;;23.91;80.03;100453.59;4973752;28;8850;-81
2021/08/20 06:04:51;;;;;;;;;14.40;14.00;;;;;24.00;79.74;100451.84;4972187;28;8842;-80
2021/08/20 06:07:20;;;;;;;;;18.80;18.40;;;;;24.17;79.10;100455.59;4958739;28;8884;-79
2021/08/20 06:10:17;;;;;;;;;26.80;25.80;;;;;24.29;79.17;100459.81;4971237;28;8855;-80
2021/08/20 06:13:14;;;;;;;;;20.00;20.00;;;;;24.47;78.70;100460.34;4954522;28;8915;-79
2021/08/20 06:15:42;;;;;;;;;20.60;20.40;;;;;24.31;77.73;100463.81;4955406;28;8883;-80
2021/08/20 06:18:11;;;;;;;;;19.20;19.20;;;;;24.31;77.43;100471.50;4938812;28;8865;-80
2021/08/20 06:21:04;;;;;;;;;15.40;15.40;;;;;24.30;77.89;100479.16;4955328;28;8873;-81
2021/08/20 06:23:33;;;;;;;;;18.80;18.80;;;;;24.38;77.01;100471.38;4938840;28;8898;-81
2021/08/20 06:26:05;;;;;;;;;18.00;18.00;;;;;24.55;76.84;100470.28;4937996;28;8995;-81
2021/08/20 06:28:33;;;;;;;;;17.00;15.80;;;;;24.75;75.98;100473.13;4955428;28;8857;-83
2021/08/20 06:31:04;;;;;;;;;18.60;18.00;;;;;24.73;76.35;100466.31;4955026;28;8845;-79
2021/08/20 06:33:37;;;;;;;;;15.00;15.00;;;;;24.93;75.55;100478.44;4938479;28;9594;-80
2021/08/20 06:36:05;;;;;;;;;18.00;18.00;;;;;24.93;74.73;100478.44;4938578;28;8896;-82
2021/08/20 06:38:33;;;;;;;;;14.80;14.80;;;;;24.89;74.34;100477.69;4955828;28;8876;-80
2021/08/20 06:41:01;;;;;;;;;18.00;18.00;;;;;24.70;74.36;100481.31;4955433;28;8865;-81
2021/08/20 06:43:28;;;;;;;;;18.40;18.40;;;;;24.82;75.76;100486.31;4958914;28;8865;-83
2021/08/20 06:45:58;;;;;;;;;19.00;17.40;;;;;25.20;74.05;100483.97;4970523;28;8887;-82
2021/08/20 06:48:26;;;;;;;;;17.20;17.20;;;;;25.25;73.60;100497.63;4956649;28;8877;-81
2021/08/20 06:50:53;;;;;;;;;15.00;15.00;;;;;25.23;73.63;100498.06;4956738;28;8897;-84
2021/08/20 06:53:21;;;;;;;;;16.40;16.40;;;;;25.33;73.45;100499.06;4956805;28;8868;-81
2021/08/20 06:55:49;;;;;;;;;16.40;16.40;;;;;25.29;72.47;100491.88;4955617;28;8845;-83
2021/08/20 06:58:17;;;;;;;;;15.60;15.60;;;;;25.51;72.77;100490.97;4938237;28;8857;-80
2021/08/20 07:00:45;;;;;;;;;16.40;16.40;;;;;25.44;72.26;100491.13;4955837;28;8869;-82
2021/08/20 07:03:14;;;;;;;;;17.40;17.40;;;;;25.31;72.67;100492.25;4955528;29;8876;-82
2021/08/20 07:05:42;;;;;;;;;16.40;16.40;;;;;25.67;72.30;100493.03;4969283;28;8869;-81
2021/08/20 07:08:10;;;;;;;;;18.60;18.60;;;;;25.77;70.92;100496.91;4954782;29;9742;-80
2021/08/20 07:10:41;;;;;;;;;20.60;19.60;;;;;25.56;70.70;100495.31;4938528;28;8975;-81
2021/08/20 07:13:09;;;;;;;;;15.00;15.00;;;;;25.83;71.68;100502.84;4937878;29;9611;-80
2021/08/20 07:15:37;;;;;;;;;17.20;17.20;;;;;25.82;70.44;100493.53;4937646;29;8892;-79
2021/08/20 07:18:06;;;;;;;;;17.40;17.40;;;;;25.90;70.25;100497.00;4954671;29;8876;-79
2021/08/20 07:20:34;;;;;;;;;15.20;15.20;;;;;25.99;70.13;100488.69;4954576;29;9607;-80
2021/08/20 07:23:21;;;;;;;;;11.00;11.00;;;;;26.10;69.93;100486.41;4955650;29;8869;-80
2021/08/20 07:25:50;;;;;;;;;19.60;19.60;;;;;26.05;69.78;100481.25;4955052;29;8869;-79
2021/08/20 07:28:17;;;;;;;;;22.40;22.40;;;;;26.10;70.27;100482.78;4955463;29;8865;-80
2021/08/20 07:30:45;;;;;;;;;16.00;16.00;;;;;26.07;69.84;100478.78;4954711;29;8869;-82
2021/08/20 07:33:13;;;;;;;;;16.00;16.00;;;;;26.01;70.72;100484.19;4954650;29;8911;-81
2021/08/20 07:35:40;;;;;;;;;18.00;18.00;;;;;25.91;70.75;100481.59;4954515;29;8885;-80
2021/08/20 07:38:07;;;;;;;;;19.00;19.00;;;;;25.82;70.39;100485.03;4954605;29;8849;-81
2021/08/20 07:40:35;;;;;;;;;14.80;14.80;;;;;25.77;71.62;100489.22;4954419;28;8869;-80
2021/08/20 07:43:03;;;;;;;;;18.80;18.80;;;;;25.96;69.83;100495.25;4957107;28;9022;-80
2021/08/20 07:45:31;;;;;;;;;15.80;15.80;;;;;26.14;70.06;100492.75;4958271;28;8861;-81
2021/08/20 07:47:59;;;;;;;;;18.20;18.20;;;;;26.02;69.59;100490.66;4958360;28;8869;-80
2021/08/20 07:50:27;;;;;;;;;18.40;18.40;;;;;26.17;68.68;100494.72;4940841;28;8907;-82
2021/08/20 07:53:03;;;;;;;;;20.20;20.20;;;;;26.13;70.46;100491.16;4958386;28;8865;-80
2021/08/20 07:55:33;;;;;;;;;18.20;18.20;;;;;26.11;69.96;100496.50;4958100;28;8868;-80
2021/08/20 07:58:02;;;;;;;;;19.80;19.80;;;;;25.95;69.85;100488.00;4941140;28;8895;-82
2021/08/20 08:00:31;;;;;;;;;17.80;17.80;;;;;25.96;70.90;100478.25;4957956;28;8868;-83
2021/08/20 08:03:00;;;;;;;;;19.40;18.00;;;;;25.73;69.11;100474.31;4957943;28;8868;-81
2021/08/20 08:05:29;;;;;;;;;18.60;16.60;;;;;25.63;70.77;100472.50;4957701;28;8981;-81
2021/08/20 08:07:58;;;;;;;;;18.60;18.60;;;;;25.69;70.56;100467.94;4957643;28;8891;-81
2021/08/20 08:10:28;;;;;;;;;17.80;17.80;;;;;25.88;70.44;100476.81;4941292;28;8856;-81
2021/08/20 08:12:57;;;;;;;;;20.20;20.20;;;;;25.70;69.62;100468.72;4957772;28;8857;-80
2021/08/20 08:15:28;;;;;;;;;19.00;18.20;;;;;25.42;70.41;100470.16;4925793;28;8888;-82
2021/08/20 08:17:57;;;;;;;;;19.00;19.00;;;;;25.50;71.11;100460.28;4957436;28;8853;-81
2021/08/20 08:20:27;;;;;;;;;22.00;22.00;;;;;25.50;71.99;100458.22;4957398;28;8988;-81
2021/08/20 08:22:55;;;;;;;;;20.80;20.80;;;;;25.56;72.34;100467.00;4957537;28;8861;-81
2021/08/20 08:25:23;;;;;;;;;20.00;20.00;;;;;25.60;71.67;100470.53;4940604;28;8884;-81
2021/08/20 08:27:58;;;;;;;;;19.20;19.20;;;;;26.03;68.94;100476.03;4957301;28;8995;-80
2021/08/20 08:30:34;;;;;;;;;21.60;21.00;;;;;26.24;69.43;100474.72;4940116;28;8892;-80
2021/08/20 08:33:04;;;;;;;;;20.00;20.00;;;;;26.36;68.09;100478.06;4939904;28;9638;-80
2021/08/20 08:35:41;;;;;;;;;17.20;17.20;;;;;26.30;67.97;100483.44;4956910;28;8896;-82
2021/08/20 08:38:23;;;;;;;;;19.00;19.00;;;;;26.32;68.03;100486.66;4973562;28;8870;-79
2021/08/20 08:41:05;;;;;;;;;20.80;20.80;;;;;26.32;67.08;100501.63;4969305;28;9623;-79
2021/08/20 08:44:00;;;;;;;;;18.60;18.60;;;;;26.14;66.41;100492.75;4948012;28;8893;-78
2021/08/20 08:46:36;;;;;;;;;15.80;15.80;;;;;25.98;65.49;100504.88;4968381;28;8953;-79
2021/08/20 08:49:06;;;;;;;;;19.00;19.00;;;;;26.04;68.25;100497.47;4969652;28;8846;-79
2021/08/20 08:52:02;;;;;;;;;18.20;18.20;;;;;26.09;68.35;100498.97;4966336;28;9004;-79
2021/08/20 08:55:00;;;;;;;;;15.00;15.00;;;;;26.31;68.47;100502.09;4968190;28;8842;-79
2021/08/20 08:57:57;;;;;;;;;18.20;18.20;;;;;26.22;66.76;100501.88;4967034;28;8878;-79
2021/08/20 09:00:52;;;;;;;;;18.80;18.80;;;;;26.37;67.34;100482.47;4966068;28;8876;-81
2021/08/20 09:03:26;;;;;;;;;13.60;13.60;;;;;26.37;67.52;100483.28;4954514;28;8884;-79
2021/08/20 09:05:56;;;;;;;;;20.00;20.00;;;;;26.74;67.60;100475.44;4956203;28;8885;-79
2021/08/20 09:08:25;;;;;;;;;14.60;14.60;;;;;27.01;66.70;100478.72;4956608;28;8868;-78
2021/08/20 09:10:52;;;;;;;;;14.80;14.80;;;;;27.16;66.00;100482.00;4956597;28;8853;-80
2021/08/20 09:13:23;;;;;;;;;14.60;14.60;;;;;26.86;63.07;100486.06;4956714;28;8899;-79
2021/08/20 09:16:13;;;;;;;;;19.00;19.00;;;;;27.21;63.85;100494.81;4956148;28;8907;-78
2021/08/20 09:18:42;;;;;;;;;13.60;13.60;;;;;27.01;63.37;100503.47;4956234;28;8861;-79
2021/08/20 09:21:16;;;;;;;;;13.40;13.40;;;;;26.63;64.55;100506.94;4956101;28;8911;-78
2021/08/20 09:23:46;;;;;;;;;11.80;11.80;;;;;26.59;65.14;100509.84;4956337;28;8896;-78
2021/08/20 09:26:23;;;;;;;;;8.00;8.00;;;;;26.63;62.49;100504.09;4956109;28;8857;-80
2021/08/20 09:28:50;;;;;;;;;16.60;16.60;;;;;26.51;64.93;100502.00;4956166;28;8901;-79
2021/08/20 09:31:20;;;;;;;;;12.40;12.40;;;;;26.41;64.30;100505.91;4956360;28;8896;-78
2021/08/20 09:33:51;;;;;;;;;12.20;12.20;;;;;26.43;64.94;100511.91;4955029;28;8885;-79
2021/08/20 09:36:22;;;;;;;;;17.20;17.20;;;;;26.39;64.78;100505.56;4956280;28;8873;-80
2021/08/20 09:38:54;;;;;;;;;12.60;12.60;;;;;26.63;64.61;100515.44;4956130;28;8857;-81
2021/08/20 09:41:34;;;;;;;;;12.40;12.40;;;;;26.35;64.72;100522.63;4956131;28;8967;-79
2021/08/20 09:44:07;;;;;;;;;14.40;14.40;;;;;26.30;64.80;100540.16;4956176;28;8869;-80
2021/08/20 09:46:43;;;;;;;;;13.20;13.20;;;;;26.17;62.95;100548.56;4956789;28;8864;-80
2021/08/20 09:49:15;;;;;;;;;10.20;10.20;;;;;25.99;65.76;100559.50;4955893;28;8948;-79
2021/08/20 09:51:49;;;;;;;;;16.00;16.00;;;;;26.17;66.04;100562.75;4955609;28;8879;-79
2021/08/20 09:54:23;;;;;;;;;14.60;14.20;;;;;25.93;65.69;100564.13;4938889;28;8881;-78
2021/08/20 09:57:00;;;;;;;;;15.60;15.60;;;;;26.04;66.10;100571.13;4954649;28;8845;-78
2021/08/20 09:59:33;;;;;;;;;17.60;16.80;;;;;26.17;65.66;100562.75;4955503;28;8853;-79
2021/08/20 10:02:03;;;;;;;;;20.40;19.60;;;;;25.99;66.72;100568.00;4955382;28;8868;-82
2021/08/20 10:04:33;;;;;;;;;16.40;16.40;;;;;25.98;67.22;100561.56;4954835;28;8981;-80
2021/08/20 10:07:08;;;;;;;;;15.40;15.40;;;;;26.10;65.98;100556.44;4940218;28;9002;-80
2021/08/20 10:09:38;;;;;;;;;13.40;13.40;;;;;26.02;64.67;100567.94;4955690;28;8872;-81
2021/08/20 10:12:08;;;;;;;;;15.20;15.20;;;;;25.69;65.94;100577.59;4956157;28;8873;-81
2021/08/20 10:14:37;;;;;;;;;14.80;14.80;;;;;25.19;66.51;100590.69;4955528;28;8943;-81
2021/08/20 10:17:05;;;;;;;;;19.20;19.20;;;;;25.19;68.94;100589.91;4955736;28;8853;-81
2021/08/20 10:19:36;;;;;;;;;12.40;12.40;;;;;24.76;68.36;100584.19;4955658;28;8887;-79
2021/08/20 10:22:06;;;;;;;;;16.80;16.80;;;;;24.86;69.31;100578.38;4955638;28;8881;-81
2021/08/20 10:24:33;;;;;;;;;14.00;14.00;;;;;24.99;69.46;100566.41;4955116;28;9642;-73
2021/08/20 10:27:33;;;;;;;;;18.00;18.00;;;;;25.38;68.52;100557.19;4954818;28;8853;-73
2021/08/20 10:30:29;;;;;;;;;16.80;16.80;;;;;25.44;67.26;100561.88;4953150;28;8866;-72
2021/08/20 10:33:05;;;;;;;;;17.80;17.60;;;;;25.84;67.02;100567.56;4970661;28;8983;-72
2021/08/20 10:36:01;;;;;;;;;16.80;16.80;;;;;25.78;66.81;100578.59;4953692;28;8892;-74
2021/08/20 10:38:39;;;;;;;;;15.00;15.00;;;;;25.91;67.21;100573.03;4973364;28;8894;-73
2021/08/20 10:41:35;;;;;;;;;17.40;17.40;;;;;26.02;63.73;100570.78;4971534;28;8892;-74
2021/08/20 10:44:17;;;;;;;;;17.80;17.80;;;;;26.59;65.47;100583.59;4976974;28;8937;-72
2021/08/20 10:46:45;;;;;;;;;17.80;17.80;;;;;26.96;63.00;100589.94;4974106;28;8878;-72
2021/08/20 10:49:44;;;;;;;;;18.80;18.60;;;;;26.80;61.75;100602.13;4973333;28;8897;-73
2021/08/20 10:52:47;;;;;;;;;13.80;13.80;;;;;27.43;62.11;100600.84;4972917;28;8882;-73
2021/08/20 10:55:31;;;;;;;;;12.80;12.80;;;;;27.77;61.83;100602.34;4992421;28;8868;-74
2021/08/20 10:58:40;;;;;;;;;13.20;13.20;;;;;28.27;59.51;100595.91;4982581;28;9719;-72
2021/08/20 11:01:35;;;;;;;;;12.60;12.60;;;;;28.51;57.61;100597.16;4969115;28;8964;-72
2021/08/20 11:04:05;;;;;;;;;15.80;15.80;;;;;28.14;57.02;100592.25;4937618;29;8884;-72
2021/08/20 11:06:47;;;;;;;;;16.20;16.20;;;;;27.77;57.28;100594.63;4954687;29;8865;-77
2021/08/20 11:09:43;;;;;;;;;14.00;14.00;;;;;27.81;59.48;100609.50;4951526;28;8906;-72
2021/08/20 11:12:38;;;;;;;;;15.20;15.20;;;;;27.90;59.14;100614.50;4979709;28;8870;-72
2021/08/20 11:15:18;;;;;;;;;14.80;14.80;;;;;27.61;59.36;100612.50;4965518;28;8862;-71
2021/08/20 11:18:17;;;;;;;;;13.00;13.00;;;;;27.30;59.82;100600.81;4967675;28;8873;-72
2021/08/20 11:21:45;;;;;;;;;14.40;14.40;;;;;27.56;60.08;100572.50;4957072;28;8884;-72
2021/08/20 11:24:33;;;;;;;;;13.20;13.20;;;;;27.88;59.80;100545.97;4960094;28;8877;-71
2021/08/20 11:27:13;;;;;;;;;16.80;16.60;;;;;28.27;58.91;100542.66;4949836;28;8888;-72
2021/08/20 11:30:09;;;;;;;;;13.00;13.00;;;;;28.90;58.44;100551.53;4958142;28;8858;-72
2021/08/20 11:33:14;;;;;;;;;13.60;13.60;;;;;29.29;54.49;100568.06;4967051;28;8858;-72
2021/08/20 11:36:19;;;;;;;;;16.60;16.60;;;;;29.69;55.85;100578.00;4976315;28;8857;-72
2021/08/20 11:39:15;;;;;;;;;16.60;16.60;;;;;29.87;56.03;100578.09;4959794;28;8975;-72
2021/08/20 11:41:45;;;;;;;;;17.60;17.40;;;;;29.60;55.56;100578.75;4974466;28;8897;-75
2021/08/20 11:44:16;;;;;;;;;18.80;18.80;;;;;29.20;56.49;100581.41;4974687;28;8944;-72
2021/08/20 11:47:16;;;;;;;;;21.20;21.20;;;;;28.97;57.02;100557.81;4974972;28;8854;-71
2021/08/20 11:50:13;;;;;;;;;15.20;15.20;;;;;28.93;56.54;100556.34;4964879;28;8838;-72
2021/08/20 11:52:59;;;;;;;;;16.80;16.80;;;;;28.78;57.40;100567.41;4965934;28;8887;-71
2021/08/20 11:55:30;;;;;;;;;15.20;15.20;;;;;28.63;58.37;100569.94;4960937;28;8873;-72
2021/08/20 11:58:00;;;;;;;;;18.80;18.00;;;;;28.41;58.93;100569.88;4965388;28;9050;-73
2021/08/20 12:00:56;;;;;;;;;21.20;21.20;;;;;28.13;58.84;100562.22;4967075;28;8866;-72
2021/08/20 12:03:26;;;;;;;;;18.60;18.60;;;;;28.12;59.21;100552.91;4975823;28;8984;-73
2021/08/20 12:06:11;;;;;;;;;16.00;16.00;;;;;28.06;59.01;100565.28;4979375;28;9608;-72
2021/08/20 12:08:39;;;;;;;;;19.80;19.80;;;;;27.69;58.17;100570.50;4979533;28;8862;-71
2021/08/20 12:11:22;;;;;;;;;17.80;17.80;;;;;27.47;59.28;100563.84;4989634;28;8863;-72
2021/08/20 12:14:23;;;;;;;;;18.60;18.60;;;;;27.14;60.27;100561.94;4973372;28;8848;-72
2021/08/20 12:17:30;;;;;;;;;19.60;19.60;;;;;26.97;60.60;100559.53;4943637;28;8867;-73
2021/08/20 12:20:25;;;;;;;;;17.40;17.40;;;;;27.18;61.08;100553.28;4969437;28;8866;-71
2021/08/20 12:23:21;;;;;;;;;17.00;17.00;;;;;27.10;61.27;100557.56;4975103;28;8891;-71
2021/08/20 12:26:17;;;;;;;;;18.40;18.40;;;;;27.12;61.75;100553.03;4973883;28;8855;-71
2021/08/20 12:29:18;;;;;;;;;17.20;17.20;;;;;27.33;59.43;100553.69;4973002;28;8882;-72